createdAt,value
2022-12-18T00:00:18.580Z,79.53
2022-12-18T00:01:29.233Z,79.55
2022-12-18T00:02:31.644Z,79.65
2022-12-18T00:03:34.978Z,76.55
2022-12-18T00:04:37.470Z,78.78
2022-12-18T00:05:50.151Z,76.03
2022-12-18T00:06:53.482Z,76.22
2022-12-18T00:07:55.759Z,79.00
2022-12-18T00:08:59.319Z,78.45
2022-12-18T00:10:01.568Z,77.65
2022-12-18T00:11:08.688Z,76.93
2022-12-18T00:13:18.295Z,79.38
2022-12-18T00:14:20.856Z,75.82
2022-12-18T00:15:23.291Z,75.55
2022-12-18T00:16:28.266Z,80.25
2022-12-18T00:17:30.782Z,77.78
2022-12-18T00:18:33.405Z,77.53
2022-12-18T00:19:35.830Z,77.35
2022-12-18T00:20:40.112Z,76.25
2022-12-18T00:21:43.633Z,76.53
2022-12-18T00:22:46.083Z,76.00
2022-12-18T00:23:50.272Z,78.40
2022-12-18T00:24:52.796Z,75.57
2022-12-18T00:25:55.196Z,78.47
2022-12-18T00:26:57.491Z,76.80
2022-12-18T00:27:59.975Z,78.05
2022-12-18T00:29:06.335Z,76.63
2022-12-18T00:30:09.165Z,72.70
2022-12-18T00:31:20.962Z,78.15
2022-12-18T00:32:23.198Z,75.15
2022-12-18T00:33:25.656Z,74.88
2022-12-18T00:34:27.977Z,76.65
2022-12-18T00:35:30.197Z,82.78
2022-12-18T00:36:34.468Z,76.38
2022-12-18T00:37:37.204Z,76.32
2022-12-18T00:38:40.971Z,77.03
2022-12-18T00:39:43.354Z,75.85
2022-12-18T00:40:45.839Z,81.38
2022-12-18T00:42:07.538Z,82.38
2022-12-18T00:43:09.879Z,78.90
2022-12-18T00:44:14.919Z,106.88
2022-12-18T00:45:17.263Z,104.55
2022-12-18T00:46:19.658Z,143.55
2022-12-18T00:47:21.969Z,120.20
2022-12-18T00:48:24.306Z,129.40
2022-12-18T00:49:26.787Z,145.80
2022-12-18T00:50:29.106Z,93.63
2022-12-18T00:51:31.509Z,84.93
2022-12-18T00:52:33.954Z,84.18
2022-12-18T00:53:36.536Z,84.32
2022-12-18T00:54:39.333Z,85.72
2022-12-18T00:55:42.404Z,81.80
2022-12-18T00:56:49.232Z,81.63
2022-12-18T00:57:53.308Z,74.00
2022-12-18T00:58:56.207Z,79.85
2022-12-18T00:59:58.634Z,85.45
2022-12-18T01:01:01.145Z,82.10
2022-12-18T01:02:04.311Z,75.90
2022-12-18T01:03:07.041Z,77.70
2022-12-18T01:04:09.284Z,82.47
2022-12-18T01:05:13.360Z,79.38
2022-12-18T01:06:16.822Z,81.75
2022-12-18T01:07:19.566Z,77.30
2022-12-18T01:08:21.906Z,83.70
2022-12-18T01:09:24.528Z,85.65
2022-12-18T01:10:29.204Z,84.18
2022-12-18T01:11:33.990Z,81.80
2022-12-18T01:12:36.804Z,76.72
2022-12-18T01:13:40.573Z,83.45
2022-12-18T01:14:43.199Z,76.78
2022-12-18T01:15:51.802Z,79.55
2022-12-18T01:16:54.650Z,76.35
2022-12-18T01:17:56.962Z,76.13
2022-12-18T01:18:59.214Z,84.65
2022-12-18T01:20:03.483Z,77.85
2022-12-18T01:21:10.301Z,78.90
2022-12-18T01:22:13.264Z,77.80
2022-12-18T01:23:15.507Z,77.90
2022-12-18T01:24:18.110Z,78.13
2022-12-18T01:25:20.626Z,78.07
2022-12-18T01:26:23.745Z,80.15
2022-12-18T01:27:26.843Z,80.43
2022-12-18T01:28:29.386Z,82.90
2022-12-18T01:29:31.903Z,77.45
2022-12-18T01:30:34.688Z,79.03
2022-12-18T01:31:37.681Z,76.43
2022-12-18T01:32:40.005Z,78.65
2022-12-18T01:33:42.685Z,79.25
2022-12-18T01:34:44.913Z,82.00
2022-12-18T01:35:47.408Z,76.85
2022-12-18T01:36:50.363Z,78.97
2022-12-18T01:37:56.092Z,76.85
2022-12-18T01:39:01.379Z,78.53
2022-12-18T01:40:04.430Z,74.90
2022-12-18T01:41:06.765Z,76.90
2022-12-18T01:42:13.515Z,75.90
2022-12-18T01:43:16.251Z,82.78
2022-12-18T01:44:59.005Z,80.28
2022-12-18T01:46:01.415Z,74.10
2022-12-18T01:47:03.835Z,75.15
2022-12-18T01:48:09.586Z,79.63
2022-12-18T01:49:12.889Z,77.95
2022-12-18T01:50:26.032Z,77.10
2022-12-18T01:51:31.665Z,76.97
2022-12-18T01:52:35.588Z,77.13
2022-12-18T01:53:40.083Z,79.45
2022-12-18T01:54:43.053Z,72.53
2022-12-18T01:55:51.307Z,76.20
2022-12-18T01:56:53.552Z,78.63
2022-12-18T01:57:58.563Z,76.68
2022-12-18T01:59:04.056Z,76.03
